createdAt,value
2022-07-29T00:02:02.226Z,17.68
2022-07-29T00:05:14.689Z,17.70
2022-07-29T00:08:22.682Z,17.68
2022-07-29T00:11:30.280Z,17.70
2022-07-29T00:14:37.211Z,17.71
2022-07-29T00:17:45.011Z,17.72
2022-07-29T00:20:54.972Z,17.60
2022-07-29T00:24:03.478Z,17.53
2022-07-29T00:27:11.160Z,17.45
2022-07-29T00:30:19.921Z,17.42
2022-07-29T00:33:27.120Z,17.43
2022-07-29T00:36:35.821Z,17.44
2022-07-29T00:39:43.688Z,17.45
2022-07-29T00:42:53.875Z,17.41
2022-07-29T00:46:00.812Z,17.37
2022-07-29T00:49:10.490Z,17.33
2022-07-29T00:52:17.720Z,17.24
2022-07-29T00:55:25.018Z,17.21
2022-07-29T00:58:33.738Z,17.18
2022-07-29T01:01:41.658Z,17.15
2022-07-29T01:04:49.751Z,17.12
2022-07-29T01:07:59.008Z,17.12
2022-07-29T01:11:08.179Z,17.11
2022-07-29T01:14:18.989Z,17.08
2022-07-29T01:17:32.670Z,17.02
2022-07-29T01:21:02.866Z,16.99
2022-07-29T01:24:45.871Z,16.97
2022-07-29T01:28:06.421Z,16.91
2022-07-29T01:31:30.921Z,16.89
2022-07-29T01:34:58.649Z,16.85
2022-07-29T01:38:25.992Z,16.85
2022-07-29T01:41:36.993Z,16.82
2022-07-29T01:45:25.292Z,16.79
2022-07-29T01:48:46.718Z,16.73
2022-07-29T01:52:02.577Z,16.72
2022-07-29T01:55:18.362Z,16.65
2022-07-29T01:58:27.389Z,16.63
2022-07-29T02:01:37.134Z,16.60
2022-07-29T02:04:45.574Z,16.60
2022-07-29T02:07:55.379Z,16.59
2022-07-29T02:11:05.169Z,16.57
2022-07-29T02:14:14.925Z,16.54
2022-07-29T02:17:33.129Z,16.48
2022-07-29T02:20:43.108Z,16.46
2022-07-29T02:23:50.871Z,16.42
2022-07-29T02:27:03.658Z,16.39
2022-07-29T02:30:13.443Z,16.35
2022-07-29T02:33:22.698Z,16.33
2022-07-29T02:36:30.419Z,16.33
2022-07-29T02:39:39.570Z,16.30
2022-07-29T02:42:51.238Z,16.28
2022-07-29T02:45:59.201Z,16.27
2022-07-29T02:49:12.908Z,16.21
2022-07-29T02:52:44.700Z,16.23
2022-07-29T02:56:22.227Z,16.17
2022-07-29T02:59:37.891Z,16.17
2022-07-29T03:02:48.845Z,16.17
2022-07-29T03:06:01.287Z,16.19
2022-07-29T03:09:13.567Z,16.17
2022-07-29T03:12:21.810Z,16.14
2022-07-29T03:15:29.520Z,16.14
2022-07-29T03:18:38.840Z,16.13
2022-07-29T03:21:47.579Z,16.12
2022-07-29T03:24:57.692Z,16.11
2022-07-29T03:28:06.128Z,16.12
2022-07-29T03:31:13.827Z,16.08
2022-07-29T03:34:21.919Z,16.04
2022-07-29T03:37:33.931Z,16.00
2022-07-29T03:40:55.577Z,15.99
2022-07-29T03:44:03.746Z,16.02
2022-07-29T03:47:12.788Z,16.03
2022-07-29T03:50:22.888Z,16.04
2022-07-29T03:53:31.465Z,15.99
2022-07-29T03:56:44.793Z,16.01
2022-07-29T03:59:54.491Z,16.03
2022-07-29T04:03:02.689Z,16.02
2022-07-29T04:06:11.877Z,16.10
2022-07-29T04:09:19.887Z,16.20
2022-07-29T04:12:28.772Z,16.25
2022-07-29T04:15:39.379Z,16.28
2022-07-29T04:18:50.469Z,16.40
2022-07-29T04:22:00.357Z,16.54
2022-07-29T04:25:07.429Z,16.67
2022-07-29T04:28:23.472Z,16.81
2022-07-29T04:31:30.691Z,16.99
2022-07-29T04:34:36.743Z,17.16
2022-07-29T04:37:42.390Z,17.30
2022-07-29T04:40:49.790Z,17.45
2022-07-29T04:44:07.533Z,17.63
2022-07-29T04:47:15.188Z,17.85
2022-07-29T04:50:23.636Z,18.02
2022-07-29T04:53:31.082Z,18.20
2022-07-29T04:56:37.185Z,18.36
2022-07-29T04:59:43.665Z,18.56
2022-07-29T05:02:49.694Z,18.76
2022-07-29T05:05:55.708Z,18.94
2022-07-29T05:09:01.338Z,19.10
2022-07-29T05:12:07.656Z,19.32
2022-07-29T05:15:13.390Z,19.45
2022-07-29T05:18:19.505Z,19.56
2022-07-29T05:21:25.198Z,19.67
2022-07-29T05:24:31.077Z,19.85
2022-07-29T05:27:38.445Z,19.97
2022-07-29T05:30:46.022Z,20.15
2022-07-29T05:33:52.144Z,20.29
2022-07-29T05:36:58.078Z,20.47
2022-07-29T05:40:04.697Z,20.59
2022-07-29T05:43:10.818Z,20.72
2022-07-29T05:46:16.806Z,20.94
2022-07-29T05:49:27.375Z,21.14
2022-07-29T05:52:33.446Z,21.27
2022-07-29T05:55:39.408Z,21.44
2022-07-29T05:58:45.387Z,21.68
2022-07-29T06:01:51.690Z,21.85
2022-07-29T06:04:57.516Z,22.16
2022-07-29T06:08:03.970Z,22.49
2022-07-29T06:11:12.755Z,22.53
2022-07-29T06:14:19.334Z,22.67
2022-07-29T06:17:26.420Z,22.80
2022-07-29T06:20:33.326Z,22.95
2022-07-29T06:23:40.308Z,23.18
2022-07-29T06:26:46.136Z,23.28
2022-07-29T06:29:52.285Z,23.48
2022-07-29T06:32:58.138Z,23.63
2022-07-29T06:36:07.142Z,23.92
2022-07-29T06:39:13.851Z,24.06
2022-07-29T06:42:19.822Z,24.16
2022-07-29T06:45:26.022Z,24.35
2022-07-29T06:48:34.972Z,24.59
2022-07-29T06:51:40.921Z,24.72
2022-07-29T06:54:49.723Z,24.95
2022-07-29T06:57:55.635Z,24.96
2022-07-29T07:01:04.936Z,25.11
2022-07-29T07:04:11.452Z,25.43
2022-07-29T07:07:17.245Z,25.51
2022-07-29T07:10:24.582Z,25.57
2022-07-29T07:13:36.858Z,25.74
2022-07-29T07:16:43.719Z,25.93
2022-07-29T07:19:50.392Z,25.85
2022-07-29T07:22:56.999Z,26.12
2022-07-29T07:26:03.662Z,26.00
2022-07-29T07:29:09.736Z,25.92
2022-07-29T07:32:17.955Z,26.07
2022-07-29T07:35:24.473Z,26.13
2022-07-29T07:38:30.526Z,26.15
2022-07-29T07:41:36.894Z,26.18
2022-07-29T07:45:10.951Z,26.35
2022-07-29T07:48:11.776Z,26.54
2022-07-29T07:51:17.549Z,26.79
2022-07-29T07:54:23.889Z,27.07
2022-07-29T07:57:30.264Z,27.22
2022-07-29T08:00:36.077Z,27.60
2022-07-29T08:03:42.011Z,27.90
2022-07-29T08:06:47.885Z,27.73
2022-07-29T08:09:55.188Z,27.86
2022-07-29T08:13:01.169Z,28.05
2022-07-29T08:16:14.540Z,28.58
2022-07-29T08:19:20.437Z,28.73
2022-07-29T08:22:26.948Z,28.95
2022-07-29T08:25:33.085Z,28.80
2022-07-29T08:28:47.635Z,28.66
2022-07-29T08:31:54.081Z,29.07
2022-07-29T08:35:00.162Z,29.15
2022-07-29T08:38:05.923Z,29.23
2022-07-29T08:41:12.294Z,29.29
2022-07-29T08:44:25.313Z,29.38
2022-07-29T08:47:48.838Z,29.67
2022-07-29T08:50:58.317Z,29.56
2022-07-29T08:54:05.732Z,29.60
2022-07-29T08:57:15.359Z,29.92
2022-07-29T09:00:24.976Z,30.12
2022-07-29T09:03:33.450Z,30.54
2022-07-29T09:06:42.312Z,30.58
2022-07-29T09:09:49.160Z,30.74
2022-07-29T09:12:56.914Z,30.89
2022-07-29T09:16:08.930Z,30.78
2022-07-29T09:19:36.650Z,30.86
2022-07-29T09:22:43.662Z,30.82
2022-07-29T09:25:49.788Z,31.17
2022-07-29T09:28:56.535Z,31.17
2022-07-29T09:32:02.591Z,31.16
2022-07-29T09:35:19.913Z,31.36
2022-07-29T09:38:25.952Z,30.97
2022-07-29T09:41:32.470Z,31.58
2022-07-29T09:44:51.581Z,31.96
2022-07-29T09:48:02.330Z,32.26
2022-07-29T09:51:38.375Z,32.29
2022-07-29T09:55:13.558Z,32.95
2022-07-29T09:58:40.531Z,33.11
2022-07-29T10:01:47.148Z,33.69
2022-07-29T10:04:54.011Z,33.20
2022-07-29T10:08:00.134Z,32.86
2022-07-29T10:11:20.585Z,33.13
2022-07-29T10:14:30.433Z,33.85
2022-07-29T10:17:36.599Z,33.65
2022-07-29T10:20:48.124Z,34.37
2022-07-29T10:23:55.412Z,33.81
2022-07-29T10:27:09.007Z,34.33
2022-07-29T10:30:17.831Z,34.36
2022-07-29T10:34:28.595Z,34.54
2022-07-29T10:37:50.860Z,34.87
2022-07-29T10:41:31.903Z,34.65
2022-07-29T10:44:59.243Z,34.81
2022-07-29T10:48:09.944Z,34.92
2022-07-29T10:51:16.640Z,35.10
2022-07-29T10:54:46.658Z,34.53
2022-07-29T10:58:20.228Z,33.29
2022-07-29T11:01:37.480Z,32.61
2022-07-29T11:05:02.310Z,32.91
2022-07-29T11:08:20.331Z,32.79
2022-07-29T11:11:51.352Z,32.59
2022-07-29T11:15:21.097Z,32.29
2022-07-29T11:18:27.988Z,32.07
2022-07-29T11:21:54.045Z,33.73
2022-07-29T11:25:17.584Z,34.50
2022-07-29T11:28:25.373Z,34.97
2022-07-29T11:31:43.435Z,34.73
2022-07-29T11:34:50.997Z,33.90
2022-07-29T11:38:31.885Z,33.77
2022-07-29T11:41:40.856Z,33.14
2022-07-29T11:45:43.029Z,33.73
2022-07-29T11:48:46.196Z,34.95
2022-07-29T11:51:55.063Z,35.27
2022-07-29T11:55:09.652Z,34.22
2022-07-29T11:58:17.861Z,34.07
2022-07-29T12:01:26.246Z,33.31
2022-07-29T12:04:35.009Z,34.00
2022-07-29T12:07:45.401Z,34.04
2022-07-29T12:10:58.868Z,33.39
2022-07-29T12:14:05.312Z,33.48
2022-07-29T12:17:33.614Z,33.52
2022-07-29T12:20:40.272Z,33.62
2022-07-29T12:24:09.131Z,34.47
2022-07-29T12:27:19.658Z,34.28
2022-07-29T12:30:51.536Z,33.74
2022-07-29T12:33:58.134Z,33.74
2022-07-29T12:37:05.175Z,33.93
2022-07-29T12:40:16.959Z,34.79
2022-07-29T12:43:24.384Z,34.44
2022-07-29T12:46:30.424Z,34.05
2022-07-29T12:49:38.150Z,35.38
2022-07-29T12:52:45.121Z,34.55
2022-07-29T12:55:56.375Z,33.77
2022-07-29T12:59:25.596Z,33.89
2022-07-29T13:02:32.667Z,34.70
2022-07-29T13:05:49.345Z,35.36
2022-07-29T13:09:07.018Z,36.86
2022-07-29T13:12:13.988Z,37.01
2022-07-29T13:15:20.258Z,37.12
2022-07-29T13:18:43.637Z,37.20
2022-07-29T13:21:51.266Z,37.15
2022-07-29T13:25:00.416Z,36.89
2022-07-29T13:28:06.711Z,36.03
2022-07-29T13:31:13.420Z,36.40
2022-07-29T13:34:23.592Z,35.28
2022-07-29T13:37:31.476Z,34.63
2022-07-29T13:40:38.213Z,35.11
2022-07-29T13:43:44.279Z,35.43
2022-07-29T13:46:50.481Z,35.21
2022-07-29T13:49:56.976Z,37.11
2022-07-29T13:53:03.259Z,36.39
2022-07-29T13:56:09.561Z,36.75
2022-07-29T13:59:15.677Z,36.91
2022-07-29T14:02:21.735Z,38.18
2022-07-29T14:05:32.386Z,37.07
2022-07-29T14:08:38.776Z,37.43
2022-07-29T14:11:45.247Z,37.22
2022-07-29T14:14:51.644Z,36.44
2022-07-29T14:17:58.314Z,35.89
2022-07-29T14:21:04.637Z,35.01
2022-07-29T14:24:17.836Z,34.69
2022-07-29T14:27:38.802Z,34.06
2022-07-29T14:30:45.091Z,34.12
2022-07-29T14:33:51.236Z,34.21
2022-07-29T14:36:57.529Z,33.99
2022-07-29T14:40:05.893Z,35.02
2022-07-29T14:43:12.632Z,34.47
2022-07-29T14:46:18.651Z,34.05
2022-07-29T14:49:25.057Z,33.51
2022-07-29T14:52:31.070Z,33.46
2022-07-29T14:55:37.669Z,33.07
2022-07-29T14:58:50.142Z,32.95
2022-07-29T15:02:11.939Z,32.84
2022-07-29T15:05:19.759Z,32.76
2022-07-29T15:08:27.144Z,32.40
2022-07-29T15:11:37.025Z,32.35
2022-07-29T15:15:01.438Z,32.40
2022-07-29T15:18:10.986Z,32.58
2022-07-29T15:21:17.339Z,32.42
2022-07-29T15:24:23.873Z,32.30
2022-07-29T15:27:29.972Z,32.21
2022-07-29T15:30:42.379Z,32.09
2022-07-29T15:33:48.559Z,32.05
2022-07-29T15:36:55.352Z,31.95
2022-07-29T15:40:01.971Z,31.97
2022-07-29T15:43:08.144Z,31.92
2022-07-29T15:46:35.464Z,31.79
2022-07-29T15:49:48.637Z,31.74
2022-07-29T15:53:11.429Z,31.69
2022-07-29T15:56:17.141Z,31.58
2022-07-29T15:59:24.070Z,31.53
2022-07-29T16:02:29.625Z,31.48
2022-07-29T16:05:35.764Z,31.44
2022-07-29T16:08:43.741Z,31.31
2022-07-29T16:11:51.666Z,31.22
2022-07-29T16:14:57.967Z,31.09
2022-07-29T16:18:03.891Z,31.06
2022-07-29T16:21:10.148Z,30.99
2022-07-29T16:24:16.700Z,30.97
2022-07-29T16:27:31.466Z,30.98
2022-07-29T16:30:58.293Z,31.11
2022-07-29T16:34:04.456Z,31.01
2022-07-29T16:37:10.646Z,30.20
2022-07-29T16:40:17.012Z,29.68
2022-07-29T16:43:23.238Z,29.30
2022-07-29T16:46:29.531Z,29.11
2022-07-29T16:49:36.710Z,28.85
2022-07-29T16:52:42.984Z,28.78
2022-07-29T16:55:48.838Z,28.71
2022-07-29T16:58:55.621Z,28.71
2022-07-29T17:02:03.376Z,28.42
2022-07-29T17:05:11.584Z,28.44
2022-07-29T17:08:17.732Z,28.36
2022-07-29T17:11:54.114Z,28.26
2022-07-29T17:14:51.984Z,28.15
2022-07-29T17:17:59.194Z,28.12
2022-07-29T17:21:05.830Z,27.89
2022-07-29T17:24:12.633Z,27.79
2022-07-29T17:27:19.261Z,27.73
2022-07-29T17:30:26.568Z,27.47
2022-07-29T17:33:32.729Z,27.42
2022-07-29T17:36:39.032Z,27.34
2022-07-29T17:39:45.228Z,27.26
2022-07-29T17:42:51.961Z,27.05
2022-07-29T17:45:59.609Z,26.89
2022-07-29T17:49:05.875Z,26.83
2022-07-29T17:52:12.165Z,26.66
2022-07-29T17:55:18.058Z,26.43
2022-07-29T17:58:27.570Z,26.31
2022-07-29T18:01:34.730Z,26.23
2022-07-29T18:04:42.232Z,26.06
2022-07-29T18:07:47.867Z,26.04
2022-07-29T18:10:54.460Z,25.95
2022-07-29T18:14:02.324Z,25.81
2022-07-29T18:17:10.112Z,25.66
2022-07-29T18:20:17.630Z,25.55
2022-07-29T18:23:24.062Z,25.56
2022-07-29T18:26:30.667Z,25.43
2022-07-29T18:29:37.985Z,25.32
2022-07-29T18:32:59.191Z,25.26
2022-07-29T18:36:13.930Z,25.19
2022-07-29T18:39:21.207Z,25.03
2022-07-29T18:42:36.615Z,25.01
2022-07-29T18:45:42.842Z,25.00
2022-07-29T18:48:48.813Z,24.91
2022-07-29T18:51:54.732Z,24.82
2022-07-29T18:55:04.417Z,24.73
2022-07-29T18:58:10.600Z,24.68
2022-07-29T19:01:16.905Z,24.56
2022-07-29T19:04:23.299Z,24.60
2022-07-29T19:07:30.868Z,24.55
2022-07-29T19:10:38.672Z,24.48
2022-07-29T19:13:44.756Z,24.51
2022-07-29T19:16:50.913Z,24.42
2022-07-29T19:19:56.919Z,24.37
2022-07-29T19:23:03.031Z,24.37
2022-07-29T19:26:12.670Z,24.30
2022-07-29T19:29:42.913Z,24.24
2022-07-29T19:32:50.288Z,24.23
2022-07-29T19:35:57.817Z,24.14
2022-07-29T19:39:04.205Z,24.13
2022-07-29T19:42:15.230Z,24.05
2022-07-29T19:45:23.161Z,24.01
2022-07-29T19:48:29.238Z,23.89
2022-07-29T19:51:35.537Z,23.88
2022-07-29T19:54:41.560Z,23.80
2022-07-29T19:57:48.929Z,23.81
2022-07-29T20:00:54.742Z,23.78
2022-07-29T20:04:00.758Z,23.75
2022-07-29T20:07:07.650Z,23.73
2022-07-29T20:10:13.818Z,23.71
2022-07-29T20:13:24.016Z,23.72
2022-07-29T20:16:31.434Z,23.65
2022-07-29T20:19:38.567Z,23.65
2022-07-29T20:22:45.142Z,23.61
2022-07-29T20:25:51.030Z,23.60
2022-07-29T20:28:57.117Z,23.56
2022-07-29T20:32:04.056Z,23.51
2022-07-29T20:35:10.686Z,23.50
2022-07-29T20:38:18.498Z,23.49
2022-07-29T20:41:24.490Z,23.48
2022-07-29T20:44:30.402Z,23.41
2022-07-29T20:47:36.321Z,23.35
2022-07-29T20:50:48.232Z,23.33
2022-07-29T20:53:54.227Z,23.30
2022-07-29T20:57:00.776Z,23.28
2022-07-29T21:00:07.869Z,23.22
2022-07-29T21:03:14.670Z,23.23
2022-07-29T21:06:20.460Z,23.21
2022-07-29T21:09:26.111Z,23.19
2022-07-29T21:12:31.884Z,23.18
2022-07-29T21:15:37.968Z,23.17
2022-07-29T21:18:46.763Z,23.14
2022-07-29T21:21:53.173Z,23.11
2022-07-29T21:24:59.013Z,23.08
2022-07-29T21:28:24.334Z,23.01
2022-07-29T21:31:30.669Z,23.03
2022-07-29T21:34:36.472Z,23.02
2022-07-29T21:37:42.153Z,23.00
2022-07-29T21:40:50.338Z,22.98
2022-07-29T21:43:58.411Z,22.97
2022-07-29T21:47:07.409Z,22.93
2022-07-29T21:50:13.362Z,22.88
2022-07-29T21:53:22.853Z,22.86
2022-07-29T21:56:31.423Z,22.86
2022-07-29T21:59:37.542Z,22.80
2022-07-29T22:02:44.213Z,22.75
2022-07-29T22:05:50.591Z,22.68
2022-07-29T22:08:59.449Z,22.57
2022-07-29T22:12:06.017Z,22.49
2022-07-29T22:15:12.157Z,22.45
2022-07-29T22:18:20.661Z,22.42
2022-07-29T22:21:27.033Z,22.35
2022-07-29T22:24:32.907Z,22.35
2022-07-29T22:27:39.547Z,22.28
2022-07-29T22:30:45.569Z,22.28
2022-07-29T22:33:52.057Z,22.35
2022-07-29T22:36:59.152Z,22.34
2022-07-29T22:40:06.513Z,22.33
2022-07-29T22:43:14.434Z,22.33
2022-07-29T22:46:20.274Z,22.17
2022-07-29T22:49:26.076Z,22.14
2022-07-29T22:52:32.547Z,22.14
2022-07-29T22:55:38.588Z,22.13
2022-07-29T22:58:44.610Z,22.15
2022-07-29T23:01:50.548Z,22.12
2022-07-29T23:04:56.377Z,22.10
2022-07-29T23:08:02.706Z,22.08
2022-07-29T23:11:08.640Z,22.03
2022-07-29T23:14:14.793Z,22.00
2022-07-29T23:17:20.546Z,21.92
2022-07-29T23:20:26.978Z,21.94
2022-07-29T23:23:32.613Z,21.91
2022-07-29T23:26:38.602Z,21.87
2022-07-29T23:29:44.563Z,21.87
2022-07-29T23:32:50.428Z,21.83
2022-07-29T23:35:56.184Z,21.82
2022-07-29T23:39:02.359Z,21.85
2022-07-29T23:42:08.074Z,21.84
2022-07-29T23:45:14.914Z,21.83
2022-07-29T23:48:21.431Z,21.80
2022-07-29T23:51:29.618Z,21.74
2022-07-29T23:54:35.438Z,21.71
2022-07-29T23:57:41.353Z,21.71
